Tikaboo Peak, Nevada Weather observations

Data are for 10 minute period ending at time listed.
 Day   Time   Solar   Ave.   Ave.  Ave.  Vector  Max.   Baro.   Total    
  of    of     Rad.   Air    Rel.  Wind   Wind   Wind  Press.  Precip.   
Year   Day            Temp.  Hum.  Speed  Dir.   Gust                    
2014   (PST)  Kw/m2    F      %     mph   deg.    mph    mb.     in.     
-------------------------------------------------------------------------
 259   13:40   0.76   77.9    22    7.7   253    19.1   766.1    0.00 
 259   13:50   0.73   79.5    21    8.1   243    15.6   765.9    0.00 
 259   14:00   0.72   80.5    20    9.5   231    20.2   766.0    0.00 
 259   14:10   0.69   80.1    20    8.5   228    17.2   765.8    0.00 
 259   14:20   0.67   81.0    19    5.9   230    12.9   765.6    0.00 
 259   14:30   0.68   80.4    20    6.5   242    15.6   765.5    0.00 
 259   14:40   0.60   81.4    20    9.2   247    18.5   765.4    0.00 
 259   14:50   0.54   80.6    20    9.3   226    16.5   765.4    0.00 
 259   15:00   0.49   80.6    20    7.6   252    13.4   765.3    0.00 
 259   15:10   0.48   81.2    19    4.7   271    11.2   765.2    0.00 
 259   15:20   0.48   80.3    20    2.7   243    13.2   765.1    0.00 
 259   15:30   0.40   81.2    19    6.7   261    12.6   765.1    0.00 
 259   15:40   0.35   81.2    20    7.6   241    14.6   765.0    0.00 
 259   15:50   0.31   78.5    22    7.1   217    18.2   764.9    0.00 
 259   16:00   0.26   78.4    23    4.0   241     9.8   764.9    0.00 
 259   16:10   0.20   77.3    23    7.3   219    20.7   764.8    0.00 
 259   16:20   0.16   75.0    25    8.8   204    21.5   764.8    0.00 
 259   16:30   0.14   75.4    24    4.5   213    10.1   765.0    0.00 
 259   16:40   0.08   73.7    26    7.4   201    18.0   765.0    0.00 
 259   16:50   0.10   74.3    26    8.2   217    15.1   765.0    0.00 
 259   17:00   0.07   72.8    27    7.4   148    14.2   765.2    0.00 
 259   17:10   0.06   71.5    28    6.4   154    14.2   765.1    0.00 
 259   17:20   0.03   70.9    29    9.4   146    17.1   765.2    0.00 
 259   17:30   0.02   69.9    30   11.6   140    17.4   765.3    0.00 
 259   17:40   0.02   69.5    31   11.6   142    16.7   765.3    0.00 
 259   17:50   0.01   69.2    30   13.9   140    17.7   765.2    0.00 
 259   18:00   0.00   68.9    31   14.7   140    19.4   765.3    0.00 
 259   18:10   0.00   68.8    31   15.5   139    17.9   765.3    0.00 
 259   18:20   0.00   68.7    31   16.5   138    18.9   765.3    0.00 
 259   18:30   0.00   68.7    30   15.8   141    18.9   765.3    0.00 
 259   18:40   0.00   68.8    30   15.9   142    18.8   765.4    0.00 
 259   18:50   0.00   68.8    29   15.7   145    19.6   765.4    0.00 
 259   19:00   0.00   68.8    30   13.2   151    20.0   765.6    0.00 
 259   19:10   0.00   68.8    30   12.2   155    18.6   765.6    0.00 
 259   19:20   0.00   68.7    30   12.4   155    17.5   765.6    0.00 
 259   19:30   0.00   68.9    31   11.2   185    18.3   765.6    0.00 
 259   19:40   0.00   69.0    33   12.8   202    19.3   765.7    0.00 
 259   19:50   0.00   68.7    35   14.1   205    20.8   765.8    0.00 
 259   20:00   0.00   68.5    36   15.0   207    19.1   765.7    0.00 
 259   20:10   0.00   68.3    37   14.0   206    17.5   765.7    0.00 
 259   20:20   0.00   68.1    38   12.5   198    15.6   765.7    0.00 
 259   20:30   0.00   67.9    39   13.7   200    18.0   765.7    0.00 
 259   20:40   0.00   67.5    44   15.5   202    19.4   765.7    0.00 
 259   20:50   0.00   67.2    47   15.3   203    20.3   765.7    0.00 
 259   21:00   0.00   67.0    49   15.5   204    21.2   765.8    0.00 
 259   21:10   0.00   66.8    50   16.5   203    23.1   765.8    0.00 
 259   21:20   0.00   66.7    50   17.0   203    24.5   765.8    0.00 
 259   21:30   0.00   66.5    52   16.4   206    22.9   765.7    0.00 
 259   21:40   0.00   66.3    53   16.3   205    21.2   765.7    0.00 
 259   21:50   0.00   65.9    55   17.7   203    23.3   765.6    0.00 
 259   22:00   0.00   65.7    56   17.7   202    24.8   765.6    0.00 
 259   22:10   0.00   65.5    57   17.3   205    26.5   765.6    0.00 
 259   22:20   0.00   65.2    59   18.3   207    24.3   765.5    0.00 
 259   22:30   0.00   64.8    61   16.6   204    23.1   765.6    0.00 
 259   22:40   0.00   64.3    63   16.6   203    21.5   765.5    0.00 
 259   22:50   0.00   64.0    62   16.4   202    22.3   765.5    0.00 
 259   23:00   0.00   63.8    63   16.8   197    20.5   765.4    0.00 
 259   23:10   0.00   63.2    65   15.1   194    18.5   765.4    0.00 
 259   23:20   0.00   62.7    66   13.8   193    18.1   765.4    0.00 
 259   23:30   0.00   62.9    64   12.4   201    18.2   765.4    0.00 
 259   23:40   0.00   63.6    60   12.5   203    14.9   765.4    0.00 
 259   23:50   0.00   63.4    62   13.1   199    16.1   765.3    0.00 
 260    0:00   0.00   62.2    66   13.2   200    16.6   765.2    0.00 
 260    0:10   0.00   61.5    66   16.4   198    20.5   765.2    0.00 
 260    0:20   0.00   61.3    65   13.3   200    19.4   765.2    0.00 
 260    0:30   0.00   61.4    64   15.3   207    20.2   765.2    0.00 
 260    0:40   0.00   61.1    65   11.8   209    17.7   765.3    0.00 
 260    0:50   0.00   61.0    64   11.8   222    16.1   765.3    0.00 
 260    1:00   0.00   61.7    64   10.5   245    13.4   765.0    0.00 
 260    1:10   0.00   62.2    64   10.2   266    12.2   765.0    0.00 
 260    1:20   0.00   62.2    65   10.8   264    12.1   764.9    0.00 
 260    1:30   0.00   61.9    66   11.6   269    14.5   764.9    0.00 
 260    1:40   0.00   61.7    66   10.7   274    13.1   764.9    0.00 
 260    1:50   0.00   61.4    66    9.9   287    12.8   764.8    0.00 
 260    2:00   0.00   61.2    66   12.0   274    14.9   764.6    0.00 
 260    2:10   0.00   61.1    66   12.2   274    16.6   764.5    0.00 
 260    2:20   0.00   61.1    65   12.4   273    17.0   764.5    0.00 
 260    2:30   0.00   60.9    65   14.0   266    18.5   764.6    0.00 
 260    2:40   0.00   60.7    66   13.5   268    16.2   764.5    0.00 
 260    2:50   0.00   60.7    66   13.3   273    17.1   764.5    0.00 
 260    3:00   0.00   60.5    66   13.9   275    17.4   764.4    0.00 
 260    3:10   0.00   60.4    67   11.8   275    15.2   764.4    0.00 
 260    3:20   0.00   60.1    67   11.2   280    12.9   764.4    0.00 
 260    3:30   0.00   60.0    69   11.2   279    14.9   764.4    0.00 
 260    3:40   0.00   60.1    73   11.7   277    14.5   764.4    0.00 
 260    3:50   0.00   60.2    76   12.2   266    13.9   764.4    0.00 
 260    4:00   0.00   60.1    76   11.4   262    13.6   764.3    0.00 
 260    4:10   0.00   60.1    76    9.3   263    12.1   764.4    0.00 
 260    4:20   0.00   59.9    76   10.5   264    13.2   764.4    0.00 
 260    4:30   0.00   59.7    76   10.1   260    12.1   764.5    0.00 
 260    4:40   0.00   59.7    76    9.6   263    11.8   764.5    0.00 
 260    4:50   0.00   59.6    76    8.7   241    11.4   764.5    0.00 
 260    5:00   0.00   59.6    76    9.2   235    10.4   764.4    0.00 
 260    5:10   0.00   59.6    77    9.0   234    10.4   764.4    0.00 
 260    5:20   0.00   59.5    76    8.6   246    10.6   764.5    0.00 
 260    5:30   0.00   59.6    76    8.2   242     9.3   764.6    0.00 
 260    5:40   0.03   60.0    76    7.7   238     9.1   764.6    0.00 
 260    5:50   0.07   60.6    74    6.7   251     7.7   764.7    0.00 
 260    6:00   0.10   61.1    73    6.3   246     7.0   764.6    0.00 
 260    6:10   0.14   61.9    71    6.3   254     7.4   764.7    0.00 
 260    6:20   0.18   63.3    68    6.8   263     8.4   764.8    0.00 
 260    6:30   0.21   64.3    65    7.1   260     9.2   764.8    0.00 
 260    6:40   0.25   64.9    64    6.3   249     7.5   764.9    0.00 
 260    6:50   0.29   65.0    63    3.8   258     6.5   764.9    0.00 
 260    7:00   0.32   65.3    63    3.6   256     5.7   764.9    0.00 
 260    7:10   0.36   66.7    60    2.9   234     6.3   764.9    0.00 
 260    7:20   0.39   69.0    56    1.5   218     4.3   765.0    0.00 
 260    7:30   0.43   70.9    52    0.7   234     2.3   765.0    0.00 
 260    7:40   0.46   70.5    52    1.2   196     3.2   765.1    0.00 
 260    7:50   0.49   71.8    50    0.3   221     2.6   765.1    0.00 
 260    8:00   0.53   71.6    50    2.0   198     4.1   765.2    0.00 
 260    8:10   0.56   71.4    50    1.9   188     4.2   765.1    0.00 
 260    8:20   0.59   70.9    52    1.0   148     4.5   765.2    0.00 
 260    8:30   0.62   72.1    48    3.1   121     7.2   765.1    0.00 
 260    8:40   0.64   71.8    49    2.9   185     5.6   765.1    0.00 
 260    8:50   0.67   72.7    47    3.4   204     7.7   765.1    0.00 
 260    9:00   0.69   71.5    48    3.6   190     6.9   765.1    0.00 
 260    9:10   0.72   71.8    47    3.2   197     6.6   765.1    0.00 
 260    9:20   0.74   72.7    45    3.9   212     9.7   765.1    0.00 
 260    9:30   0.76   73.0    44    3.1   214     7.5   765.1    0.00 
 260    9:40   0.78   73.1    43    4.5   219    11.2   765.1    0.00 
 260    9:50   0.79   73.0    43    2.8   244     9.4   765.2    0.00 
 260   10:00   0.81   72.7    43    1.9   235     9.8   765.3    0.00 
 260   10:10   0.82   74.2    41    2.6   268     7.8   765.1    0.00 
 260   10:20   0.83   74.5    40    2.6   289     6.9   765.1    0.00 
 260   10:30   0.84   73.3    42    2.7   232     6.6   765.0    0.00 
 260   10:40   0.85   74.2    41    2.7   240     8.0   765.1    0.00 
 260   10:50   0.86   74.4    41    3.0   245     9.8   765.0    0.00 
 260   11:00   0.86   74.7    40    4.4   229    11.1   765.1    0.00 
 260   11:10   0.87   75.2    39    6.8   237    14.7   765.0    0.00 
 260   11:20   0.89   75.1    38    6.2   226    15.3   764.8    0.00 
 260   11:30   0.87   75.7    37    7.5   224    15.8   764.7    0.00 
 260   11:40   0.87   73.9    39    8.2   220    18.3   764.7    0.00 
 260   11:50   0.81   74.8    38    6.9   223    15.1   764.7    0.00 
 260   12:00   0.85   74.9    37    8.7   223    18.0   764.7    0.00 
 260   12:10   0.85   73.8    38    7.2   227    16.5   764.6    0.00 
 260   12:20   0.84   74.6    36    9.9   227    18.8   764.4    0.00 
 260   12:30   0.83   74.8    35   10.6   214    20.7   764.3    0.00 
 260   12:40   0.82   73.7    36   10.6   213    19.4   764.3    0.00 
 260   12:50   0.80   74.0    35   12.4   216    24.8   764.1    0.00 
 260   13:00   0.80   74.0    36    7.6   213    15.6   764.1    0.00 
 260   13:10   0.81   75.6    33    8.7   228    20.0   764.1    0.00 
 260   13:20   0.83   76.3    32    9.3   232    17.0   764.0    0.00 
 260   13:30   0.77   76.1    31   11.5   217    20.6   764.0    0.00 

Return to Tikaboo Peak graphs page.


Western Regional Climate Center,wrcc@dri.edu